createdAt,value
2022-11-05T00:00:32.105Z,100.00
2022-11-05T00:03:17.574Z,100.00
2022-11-05T00:06:05.281Z,100.00
2022-11-05T00:08:50.619Z,100.00
2022-11-05T00:11:18.407Z,100.00
2022-11-05T00:14:11.764Z,100.00
2022-11-05T00:16:47.420Z,100.00
2022-11-05T00:19:15.044Z,100.00
2022-11-05T00:22:00.500Z,100.00
2022-11-05T00:24:45.630Z,100.00
2022-11-05T00:27:12.239Z,100.00
2022-11-05T00:29:38.876Z,100.00
2022-11-05T00:32:05.643Z,100.00
2022-11-05T00:34:32.288Z,100.00
2022-11-05T00:36:59.060Z,100.00
2022-11-05T00:39:25.738Z,100.00
2022-11-05T00:42:24.590Z,100.00
2022-11-05T00:45:03.149Z,100.00
2022-11-05T00:47:50.447Z,100.00
2022-11-05T00:50:18.210Z,100.00
2022-11-05T00:52:57.345Z,100.00
2022-11-05T00:55:56.737Z,100.00
2022-11-05T00:58:24.281Z,100.00
2022-11-05T01:00:53.981Z,100.00
2022-11-05T01:03:23.223Z,100.00
2022-11-05T01:05:52.875Z,100.00
2022-11-05T01:08:21.905Z,100.00
2022-11-05T01:10:55.097Z,100.00
2022-11-05T01:13:24.528Z,100.00
2022-11-05T01:15:51.667Z,100.00
2022-11-05T01:18:19.846Z,100.00
2022-11-05T01:20:46.687Z,100.00
2022-11-05T01:23:14.106Z,100.00
2022-11-05T01:25:44.756Z,100.00
2022-11-05T01:28:11.597Z,100.00
2022-11-05T01:30:38.712Z,100.00
2022-11-05T01:33:05.759Z,100.00
2022-11-05T01:35:32.430Z,100.00
2022-11-05T01:37:59.129Z,100.00
2022-11-05T01:40:26.542Z,100.00
2022-11-05T01:42:53.162Z,100.00
2022-11-05T01:45:27.603Z,100.00
2022-11-05T01:48:09.429Z,100.00
2022-11-05T01:50:48.273Z,100.00
2022-11-05T01:53:51.114Z,100.00
2022-11-05T01:56:41.223Z,100.00
2022-11-05T01:59:13.168Z,100.00
2022-11-05T02:01:39.957Z,100.00
2022-11-05T02:04:10.336Z,100.00
2022-11-05T02:06:46.418Z,100.00
2022-11-05T02:09:20.848Z,100.00
2022-11-05T02:11:48.525Z,100.00
2022-11-05T02:14:15.202Z,100.00
2022-11-05T02:16:48.934Z,100.00
2022-11-05T02:19:30.396Z,100.00
2022-11-05T02:22:10.124Z,100.00
2022-11-05T02:25:15.116Z,100.00
2022-11-05T02:28:00.199Z,100.00
2022-11-05T02:30:42.269Z,100.00
2022-11-05T02:33:20.806Z,100.00
2022-11-05T02:36:06.448Z,100.00
2022-11-05T02:38:42.025Z,100.00
2022-11-05T02:41:12.641Z,100.00
2022-11-05T02:44:22.308Z,100.00
2022-11-05T02:46:56.898Z,100.00
2022-11-05T02:49:39.176Z,100.00
2022-11-05T02:52:14.835Z,100.00
2022-11-05T02:54:57.089Z,100.00
2022-11-05T02:57:24.446Z,100.00
2022-11-05T03:00:08.828Z,100.00
2022-11-05T03:02:35.822Z,100.00
2022-11-05T03:05:03.566Z,100.00
2022-11-05T03:07:48.586Z,100.00
2022-11-05T03:10:27.489Z,100.00
2022-11-05T03:13:09.722Z,100.00
2022-11-05T03:15:51.526Z,100.00
2022-11-05T03:18:35.545Z,100.00
2022-11-05T03:21:25.371Z,100.00
2022-11-05T03:24:03.581Z,100.00
2022-11-05T03:26:46.347Z,100.00
2022-11-05T03:29:19.892Z,100.00
2022-11-05T03:31:49.498Z,100.00
2022-11-05T03:34:19.718Z,100.00
2022-11-05T03:36:52.014Z,100.00
2022-11-05T03:39:26.750Z,100.00
2022-11-05T03:41:54.182Z,100.00
2022-11-05T03:44:27.456Z,100.00
2022-11-05T03:46:58.761Z,100.00
2022-11-05T03:49:29.721Z,100.00
2022-11-05T03:52:05.024Z,100.00
2022-11-05T03:54:33.017Z,100.00
2022-11-05T03:57:08.698Z,100.00
2022-11-05T03:59:46.831Z,100.00
2022-11-05T04:02:15.671Z,100.00
2022-11-05T04:04:42.865Z,100.00
2022-11-05T04:07:29.695Z,100.00
2022-11-05T04:10:15.770Z,100.00
2022-11-05T04:13:00.910Z,100.00
2022-11-05T04:15:29.657Z,100.00
2022-11-05T04:17:59.048Z,100.00
2022-11-05T04:20:46.395Z,100.00
2022-11-05T04:23:31.618Z,100.00
2022-11-05T04:25:58.295Z,100.00
2022-11-05T04:28:44.965Z,100.00
2022-11-05T04:31:12.119Z,100.00
2022-11-05T04:33:38.735Z,100.00
2022-11-05T04:36:05.625Z,100.00
2022-11-05T04:38:32.268Z,100.00
2022-11-05T04:41:13.723Z,100.00
2022-11-05T04:43:40.447Z,100.00
2022-11-05T04:46:08.346Z,100.00
2022-11-05T04:48:35.181Z,100.00
2022-11-05T04:51:01.860Z,100.00
2022-11-05T04:53:28.581Z,100.00
2022-11-05T04:55:55.354Z,100.00
2022-11-05T04:58:22.042Z,100.00
2022-11-05T05:00:50.129Z,100.00
2022-11-05T05:03:16.765Z,100.00
2022-11-05T05:05:43.445Z,100.00
2022-11-05T05:08:10.061Z,100.00
2022-11-05T05:10:36.928Z,100.00
2022-11-05T05:13:03.617Z,100.00
2022-11-05T05:15:30.617Z,100.00
2022-11-05T05:17:57.386Z,100.00
2022-11-05T05:20:53.151Z,100.00
2022-11-05T05:23:19.685Z,100.00
2022-11-05T05:25:46.317Z,100.00
2022-11-05T05:28:12.975Z,100.00
2022-11-05T05:30:39.616Z,100.00
2022-11-05T05:33:06.248Z,100.00
2022-11-05T05:35:32.889Z,100.00
2022-11-05T05:37:59.521Z,100.00
2022-11-05T05:40:26.226Z,100.00
2022-11-05T05:42:55.935Z,100.00
2022-11-05T05:45:22.647Z,100.00
2022-11-05T05:47:49.348Z,100.00
2022-11-05T05:50:16.017Z,100.00
2022-11-05T05:52:42.708Z,100.00
2022-11-05T05:55:12.610Z,100.00
2022-11-05T05:57:39.271Z,100.00
2022-11-05T06:00:06.531Z,100.00
2022-11-05T06:02:33.432Z,100.00
2022-11-05T06:05:00.218Z,100.00
2022-11-05T06:07:26.849Z,100.00
2022-11-05T06:09:53.440Z,100.00
2022-11-05T06:12:20.119Z,100.00
2022-11-05T06:14:46.783Z,100.00
2022-11-05T06:17:13.931Z,100.00
2022-11-05T06:19:40.573Z,100.00
2022-11-05T06:22:07.820Z,95.73
2022-11-05T06:24:34.544Z,81.19
2022-11-05T06:27:01.241Z,75.27
2022-11-05T06:29:27.971Z,78.88
2022-11-05T06:31:54.599Z,75.25
2022-11-05T06:34:21.269Z,66.30
2022-11-05T06:36:47.960Z,74.07
2022-11-05T06:39:14.647Z,75.25
2022-11-05T06:44:27.943Z,63.90
2022-11-05T06:46:54.646Z,67.51
2022-11-05T06:49:24.734Z,64.96
2022-11-05T06:51:52.709Z,69.70
2022-11-05T06:54:19.701Z,60.44
2022-11-05T06:56:46.372Z,54.16
2022-11-05T06:59:13.028Z,58.85
2022-11-05T07:01:39.996Z,54.38
2022-11-05T07:04:06.914Z,50.11
2022-11-05T07:06:37.148Z,52.86
2022-11-05T07:09:04.402Z,49.85
2022-11-05T07:11:31.297Z,51.98
2022-11-05T07:13:58.125Z,51.84
2022-11-05T07:16:27.077Z,48.17
2022-11-05T07:18:56.089Z,49.44
2022-11-05T07:21:23.462Z,48.27
2022-11-05T07:23:50.361Z,45.52
2022-11-05T07:26:17.242Z,44.36
2022-11-05T07:28:44.288Z,41.97
2022-11-05T07:31:10.928Z,42.41
2022-11-05T07:33:37.658Z,41.12
2022-11-05T07:36:04.891Z,38.92
2022-11-05T07:38:31.633Z,38.27
2022-11-05T07:41:01.668Z,36.05
2022-11-05T07:43:30.643Z,35.85
2022-11-05T07:45:57.777Z,35.25
2022-11-05T07:48:24.439Z,36.48
2022-11-05T07:50:52.028Z,37.10
2022-11-05T07:53:20.681Z,35.58
2022-11-05T07:55:50.532Z,35.77
2022-11-05T07:58:17.179Z,35.65
2022-11-05T08:00:44.353Z,34.73
2022-11-05T08:03:15.519Z,35.84
2022-11-05T08:05:47.279Z,35.55
2022-11-05T08:08:16.647Z,35.52
2022-11-05T08:10:43.820Z,34.51
2022-11-05T08:13:11.938Z,33.80
2022-11-05T08:15:39.191Z,34.31
2022-11-05T08:18:08.915Z,31.49
2022-11-05T08:20:36.342Z,32.01
2022-11-05T08:23:02.992Z,31.84
2022-11-05T08:25:29.949Z,31.85
2022-11-05T08:27:58.891Z,32.30
2022-11-05T08:30:25.997Z,30.19
2022-11-05T08:32:57.541Z,30.30
2022-11-05T08:35:24.656Z,30.48
2022-11-05T08:37:51.408Z,30.83
2022-11-05T08:40:18.092Z,30.87
2022-11-05T08:42:48.563Z,31.72
2022-11-05T08:45:15.386Z,29.72
2022-11-05T08:47:42.078Z,29.71
2022-11-05T08:50:09.921Z,28.83
2022-11-05T08:52:40.326Z,29.85
2022-11-05T08:55:09.997Z,27.67
2022-11-05T08:57:36.728Z,26.71
2022-11-05T09:00:04.067Z,27.39
2022-11-05T09:02:33.006Z,27.90
2022-11-05T09:04:59.720Z,28.02
2022-11-05T09:07:26.457Z,26.95
2022-11-05T09:09:53.173Z,27.16
2022-11-05T09:12:19.888Z,26.79
2022-11-05T09:14:46.553Z,28.49
2022-11-05T09:17:17.816Z,27.58
2022-11-05T09:19:44.900Z,26.53
2022-11-05T09:22:12.941Z,27.82
2022-11-05T09:24:40.949Z,28.03
2022-11-05T09:27:10.370Z,27.59
2022-11-05T09:29:38.048Z,28.68
2022-11-05T09:32:05.059Z,27.82
2022-11-05T09:34:32.987Z,27.03
2022-11-05T09:37:00.094Z,28.28
2022-11-05T09:39:26.933Z,26.48
2022-11-05T09:41:59.681Z,27.42
2022-11-05T09:44:43.909Z,27.37
2022-11-05T09:47:17.546Z,26.63
2022-11-05T09:49:52.524Z,26.19
2022-11-05T09:52:20.896Z,25.53
2022-11-05T09:54:50.236Z,26.48
2022-11-05T09:57:21.640Z,27.27
2022-11-05T09:59:54.610Z,25.89
2022-11-05T10:02:26.024Z,26.02
2022-11-05T10:04:56.584Z,26.09
2022-11-05T10:07:29.601Z,26.32
2022-11-05T10:10:03.508Z,25.83
2022-11-05T10:12:46.200Z,26.27
2022-11-05T10:15:19.585Z,25.74
2022-11-05T10:17:59.026Z,26.52
2022-11-05T10:20:38.809Z,25.68
2022-11-05T10:23:28.460Z,25.25
2022-11-05T10:26:00.283Z,25.39
2022-11-05T10:28:29.864Z,25.36
2022-11-05T10:31:03.076Z,26.71
2022-11-05T10:33:39.836Z,25.04
2022-11-05T10:36:11.363Z,26.28
2022-11-05T10:38:38.132Z,26.28
2022-11-05T10:41:04.906Z,25.84
2022-11-05T10:43:36.473Z,25.28
2022-11-05T10:46:24.945Z,25.39
2022-11-05T10:49:04.125Z,25.91
2022-11-05T10:51:32.234Z,25.96
2022-11-05T10:54:06.236Z,26.25
2022-11-05T10:56:37.732Z,26.53
2022-11-05T10:59:18.862Z,26.66
2022-11-05T11:01:46.515Z,25.87
2022-11-05T11:04:22.956Z,25.48
2022-11-05T11:06:58.945Z,25.54
2022-11-05T11:09:32.894Z,25.92
2022-11-05T11:12:07.606Z,25.27
2022-11-05T11:14:35.319Z,26.08
2022-11-05T11:17:27.516Z,26.64
2022-11-05T11:20:27.983Z,25.44
2022-11-05T11:23:02.025Z,27.15
2022-11-05T11:25:35.909Z,27.39
2022-11-05T11:28:07.223Z,27.33
2022-11-05T11:30:35.474Z,25.88
2022-11-05T11:33:09.501Z,26.21
2022-11-05T11:35:39.491Z,27.26
2022-11-05T11:38:07.321Z,26.50
2022-11-05T11:40:38.042Z,28.27
2022-11-05T11:43:14.487Z,28.16
2022-11-05T11:45:50.963Z,28.20
2022-11-05T11:48:22.956Z,28.00
2022-11-05T11:53:35.438Z,28.38
2022-11-05T11:56:09.685Z,27.64
2022-11-05T11:58:41.304Z,28.33
2022-11-05T12:01:36.857Z,28.23
2022-11-05T12:04:10.267Z,28.96
2022-11-05T12:06:50.561Z,29.53
2022-11-05T12:09:56.047Z,29.46
2022-11-05T12:12:49.325Z,29.67
2022-11-05T12:15:51.225Z,28.61
2022-11-05T12:18:39.896Z,29.52
2022-11-05T12:21:48.034Z,31.67
2022-11-05T12:25:01.105Z,31.33
2022-11-05T12:27:46.702Z,31.26
2022-11-05T12:30:19.153Z,30.42
2022-11-05T12:33:04.675Z,30.59
2022-11-05T12:35:57.588Z,30.62
2022-11-05T12:38:52.758Z,30.96
2022-11-05T12:41:43.155Z,29.93
2022-11-05T12:44:29.204Z,29.66
2022-11-05T12:47:33.876Z,30.67
2022-11-05T12:50:12.643Z,30.78
2022-11-05T12:52:58.187Z,31.18
2022-11-05T12:55:27.361Z,31.45
2022-11-05T12:58:03.891Z,32.23
2022-11-05T13:00:38.735Z,32.24
2022-11-05T13:03:26.312Z,32.64
2022-11-05T13:06:01.475Z,33.07
2022-11-05T13:08:56.686Z,34.51
2022-11-05T13:11:26.587Z,32.63
2022-11-05T13:14:23.519Z,33.50
2022-11-05T13:16:55.870Z,32.97
2022-11-05T13:19:31.226Z,33.23
2022-11-05T13:22:14.233Z,33.96
2022-11-05T13:24:54.573Z,35.68
2022-11-05T13:27:48.463Z,33.57
2022-11-05T13:30:28.324Z,33.44
2022-11-05T13:33:10.951Z,33.80
2022-11-05T13:36:35.050Z,35.40
2022-11-05T13:39:21.542Z,35.03
2022-11-05T13:42:06.352Z,35.31
2022-11-05T13:45:08.036Z,35.35
2022-11-05T13:48:00.862Z,35.51
2022-11-05T13:51:09.491Z,35.24
2022-11-05T13:53:55.013Z,36.82
2022-11-05T13:56:27.363Z,37.42
2022-11-05T13:59:00.754Z,36.69
2022-11-05T14:01:45.608Z,36.70
2022-11-05T14:05:06.403Z,37.43
2022-11-05T14:07:44.533Z,38.39
2022-11-05T14:10:26.799Z,38.36
2022-11-05T14:12:56.659Z,38.54
2022-11-05T14:15:32.694Z,38.11
2022-11-05T14:18:01.178Z,38.90
2022-11-05T14:20:31.192Z,38.77
2022-11-05T14:23:26.108Z,39.67
2022-11-05T14:26:33.176Z,38.90
2022-11-05T14:29:03.251Z,39.18
2022-11-05T14:32:07.084Z,39.39
2022-11-05T14:34:43.261Z,40.98
2022-11-05T14:37:09.857Z,40.83
2022-11-05T14:39:37.158Z,41.13
2022-11-05T14:42:17.715Z,41.66
2022-11-05T14:45:19.827Z,41.24
2022-11-05T14:47:59.217Z,41.52
2022-11-05T14:50:33.754Z,42.29
2022-11-05T14:53:25.863Z,42.29
2022-11-05T14:56:22.634Z,42.50
2022-11-05T14:58:49.279Z,42.67
2022-11-05T15:01:15.985Z,43.38
2022-11-05T15:03:46.422Z,43.27
2022-11-05T15:06:32.198Z,43.72
2022-11-05T15:09:29.041Z,44.55
2022-11-05T15:11:55.807Z,44.71
2022-11-05T15:14:42.545Z,45.33
2022-11-05T15:17:33.245Z,45.62
2022-11-05T15:20:23.925Z,45.67
2022-11-05T15:22:59.696Z,46.87
2022-11-05T15:26:04.030Z,47.09
2022-11-05T15:28:38.925Z,48.28
2022-11-05T15:31:14.746Z,49.25
2022-11-05T15:33:43.191Z,48.39
2022-11-05T15:36:29.203Z,48.95
2022-11-05T15:39:23.321Z,49.83
2022-11-05T15:41:45.447Z,49.41
2022-11-05T15:44:46.221Z,50.15
2022-11-05T15:47:20.935Z,49.74
2022-11-05T15:49:53.597Z,50.21
2022-11-05T15:52:23.251Z,50.90
2022-11-05T15:55:14.965Z,51.87
2022-11-05T15:57:51.002Z,52.23
2022-11-05T16:00:27.054Z,52.73
2022-11-05T16:02:55.513Z,53.09
2022-11-05T16:05:24.321Z,53.69
2022-11-05T16:07:51.458Z,54.26
2022-11-05T16:10:25.290Z,54.44
2022-11-05T16:12:52.341Z,55.33
2022-11-05T16:15:23.288Z,55.66
2022-11-05T16:17:53.561Z,56.14
2022-11-05T16:20:23.445Z,56.75
2022-11-05T16:22:54.056Z,56.90
2022-11-05T16:25:37.063Z,58.09
2022-11-05T16:28:06.751Z,58.71
2022-11-05T16:30:33.628Z,61.21
2022-11-05T16:33:06.277Z,62.49
2022-11-05T16:35:33.268Z,63.83
2022-11-05T16:38:02.060Z,65.16
2022-11-05T16:40:29.593Z,65.34
2022-11-05T16:43:09.748Z,65.61
2022-11-05T16:45:41.457Z,66.78
2022-11-05T16:48:12.128Z,67.52
2022-11-05T16:50:39.533Z,66.97
2022-11-05T16:53:06.793Z,66.79
2022-11-05T16:55:37.880Z,66.47
2022-11-05T16:58:04.865Z,67.33
2022-11-05T17:00:31.576Z,68.37
2022-11-05T17:02:58.419Z,69.27
2022-11-05T17:05:31.268Z,70.79
2022-11-05T17:07:58.665Z,70.98
2022-11-05T17:10:26.335Z,72.83
2022-11-05T17:12:54.227Z,73.74
2022-11-05T17:15:23.376Z,73.80
2022-11-05T17:17:51.051Z,74.07
2022-11-05T17:20:34.991Z,74.75
2022-11-05T17:23:13.452Z,74.45
2022-11-05T17:25:41.388Z,75.99
2022-11-05T17:28:10.336Z,75.89
2022-11-05T17:30:41.187Z,78.30
2022-11-05T17:33:09.878Z,78.85
2022-11-05T17:35:40.781Z,78.29
2022-11-05T17:38:08.524Z,78.55
2022-11-05T17:40:36.679Z,79.97
2022-11-05T17:43:04.952Z,82.39
2022-11-05T17:45:32.929Z,85.04
2022-11-05T17:48:00.495Z,84.55
2022-11-05T17:50:27.508Z,84.79
2022-11-05T17:52:54.439Z,87.42
2022-11-05T17:55:21.667Z,85.56
2022-11-05T17:57:50.794Z,85.13
2022-11-05T18:00:24.313Z,84.47
2022-11-05T18:02:53.559Z,85.07
2022-11-05T18:05:22.330Z,87.36
2022-11-05T18:07:50.393Z,89.69
2022-11-05T18:10:17.524Z,91.15
2022-11-05T18:12:44.587Z,90.77
2022-11-05T18:15:12.683Z,91.36
2022-11-05T18:17:40.283Z,91.64
2022-11-05T18:20:14.216Z,95.18
2022-11-05T18:22:45.142Z,95.00
2022-11-05T18:25:13.702Z,94.81
2022-11-05T18:27:40.923Z,97.26
2022-11-05T18:30:09.133Z,97.67
2022-11-05T18:32:36.225Z,96.31
2022-11-05T18:35:03.065Z,95.19
2022-11-05T18:37:29.768Z,95.19
2022-11-05T18:39:56.410Z,94.34
2022-11-05T18:42:23.250Z,94.52
2022-11-05T18:44:49.916Z,94.19
2022-11-05T18:47:16.598Z,96.34
2022-11-05T18:49:43.387Z,96.03
2022-11-05T18:52:10.089Z,96.17
2022-11-05T18:54:36.839Z,96.29
2022-11-05T18:57:03.600Z,95.96
2022-11-05T18:59:39.513Z,99.51
2022-11-05T19:02:08.888Z,100.00
2022-11-05T19:04:37.296Z,100.00
2022-11-05T19:07:05.340Z,100.00
2022-11-05T19:09:33.829Z,100.00
2022-11-05T19:12:00.926Z,100.00
2022-11-05T19:14:28.015Z,100.00
2022-11-05T19:16:54.677Z,100.00
2022-11-05T19:19:21.586Z,100.00
2022-11-05T19:21:48.261Z,100.00
2022-11-05T19:24:17.944Z,100.00
2022-11-05T19:26:44.788Z,100.00
2022-11-05T19:29:11.681Z,100.00
2022-11-05T19:31:38.728Z,100.00
2022-11-05T19:34:06.007Z,100.00
2022-11-05T19:36:33.587Z,100.00
2022-11-05T19:39:02.483Z,100.00
2022-11-05T19:41:29.232Z,100.00
2022-11-05T19:43:58.107Z,100.00
2022-11-05T19:46:25.772Z,100.00
2022-11-05T19:48:52.547Z,100.00
2022-11-05T19:51:25.298Z,100.00
2022-11-05T19:53:52.988Z,100.00
2022-11-05T19:56:25.299Z,100.00
2022-11-05T19:58:53.398Z,100.00
2022-11-05T20:01:22.052Z,100.00
2022-11-05T20:03:49.337Z,100.00
2022-11-05T20:06:20.287Z,100.00
2022-11-05T20:09:19.518Z,100.00
2022-11-05T20:11:39.313Z,100.00
2022-11-05T20:14:07.112Z,100.00
2022-11-05T20:16:38.269Z,100.00
2022-11-05T20:19:07.440Z,100.00
2022-11-05T20:21:35.089Z,100.00
2022-11-05T20:24:02.561Z,100.00
2022-11-05T20:26:30.027Z,100.00
2022-11-05T20:28:56.733Z,100.00
2022-11-05T20:31:27.523Z,100.00
2022-11-05T20:33:54.577Z,100.00
2022-11-05T20:36:23.093Z,100.00
2022-11-05T20:38:51.455Z,100.00
2022-11-05T20:41:18.973Z,100.00
2022-11-05T20:43:46.883Z,100.00
2022-11-05T20:46:16.887Z,100.00
2022-11-05T20:48:44.595Z,100.00
2022-11-05T20:51:15.747Z,100.00
2022-11-05T20:53:43.394Z,100.00
2022-11-05T20:56:20.079Z,100.00
2022-11-05T20:58:47.479Z,100.00
2022-11-05T21:01:16.658Z,100.00
2022-11-05T21:03:45.414Z,100.00
2022-11-05T21:06:13.433Z,100.00
2022-11-05T21:08:40.192Z,100.00
2022-11-05T21:11:07.390Z,100.00
2022-11-05T21:13:34.787Z,100.00
2022-11-05T21:16:02.085Z,100.00
2022-11-05T21:18:31.402Z,100.00
2022-11-05T21:21:00.520Z,100.00
2022-11-05T21:23:28.400Z,100.00
2022-11-05T21:25:55.474Z,100.00
2022-11-05T21:28:22.227Z,100.00
2022-11-05T21:30:49.261Z,100.00
2022-11-05T21:33:17.864Z,100.00
2022-11-05T21:35:47.943Z,100.00
2022-11-05T21:38:16.671Z,100.00
2022-11-05T21:40:44.398Z,100.00
2022-11-05T21:43:12.029Z,100.00
2022-11-05T21:45:40.152Z,100.00
2022-11-05T21:48:07.826Z,100.00
2022-11-05T21:50:54.137Z,100.00
2022-11-05T21:53:39.448Z,100.00
2022-11-05T21:56:26.720Z,100.00
2022-11-05T21:59:11.758Z,100.00
2022-11-05T22:01:38.589Z,100.00
2022-11-05T22:04:05.273Z,100.00
2022-11-05T22:06:35.025Z,100.00
2022-11-05T22:09:02.227Z,100.00
2022-11-05T22:11:28.856Z,100.00
2022-11-05T22:13:55.544Z,100.00
2022-11-05T22:16:22.147Z,100.00
2022-11-05T22:18:48.821Z,100.00
2022-11-05T22:21:18.297Z,100.00
2022-11-05T22:23:45.092Z,100.00
2022-11-05T22:26:11.813Z,100.00
2022-11-05T22:28:38.422Z,100.00
2022-11-05T22:31:12.024Z,100.00
2022-11-05T22:33:38.740Z,100.00
2022-11-05T22:36:05.746Z,100.00
2022-11-05T22:38:32.462Z,100.00
2022-11-05T22:40:59.095Z,100.00
2022-11-05T22:43:25.759Z,100.00
2022-11-05T22:45:52.416Z,100.00
2022-11-05T22:48:19.040Z,100.00
2022-11-05T22:50:45.740Z,100.00
2022-11-05T22:53:12.381Z,100.00
2022-11-05T22:55:39.815Z,100.00
2022-11-05T22:58:06.469Z,100.00
2022-11-05T23:00:36.216Z,100.00
2022-11-05T23:03:03.253Z,100.00
2022-11-05T23:05:30.123Z,100.00
2022-11-05T23:08:15.647Z,100.00
2022-11-05T23:11:01.083Z,100.00
2022-11-05T23:13:27.764Z,100.00
2022-11-05T23:16:12.717Z,100.00
2022-11-05T23:19:02.446Z,100.00
2022-11-05T23:21:47.356Z,100.00
2022-11-05T23:24:14.304Z,100.00
2022-11-05T23:26:50.057Z,100.00
2022-11-05T23:29:27.316Z,100.00
2022-11-05T23:32:13.266Z,100.00
2022-11-05T23:34:40.281Z,100.00
2022-11-05T23:37:25.871Z,100.00
2022-11-05T23:39:53.972Z,100.00
2022-11-05T23:42:39.491Z,100.00
2022-11-05T23:45:25.079Z,100.00
2022-11-05T23:48:10.497Z,100.00
2022-11-05T23:50:39.923Z,100.00
2022-11-05T23:53:08.766Z,100.00
2022-11-05T23:55:36.251Z,100.00
2022-11-05T23:58:02.946Z,100.00
